Time;durP1;ratioP1;P1;durP2;ratioP2;P2;SDS_P1;SDS_P2;PMS_P1;PMS_P2;Temp;Humidity;BMP_temperature;BMP_pressure;BME280_temperature;BME280_humidity;BME280_pressure;Samples;Min_cycle;Max_cycle;Signal;HPM_P1;HPM_P2
2022/11/10 00:00:02;;;;;;;;;;;14.20;99.90;;;;;;5091996;28;20011;-23
2022/11/10 00:02:28;;;;;;;;;;;14.10;99.90;;;;;;5093002;28;20396;-24
2022/11/10 00:04:53;;;;;;;;;;;14.10;99.90;;;;;;5093380;28;19912;-24
2022/11/10 00:07:22;;;;;;;;;;;14.10;99.90;;;;;;5093196;28;19912;-24
2022/11/10 00:09:48;;;;;;;;;;;14.20;99.90;;;;;;5093381;28;19976;-23
2022/11/10 00:12:13;;;;;;;;;;;14.10;99.90;;;;;;5093055;28;20373;-23
2022/11/10 00:17:23;;;;;;;;;;;14.10;99.90;;;;;;5093133;28;19915;-24
2022/11/10 00:19:48;;;;;;;;;;;14.10;99.90;;;;;;5093098;28;20289;-23
2022/11/10 01:54:20;;;;;;;;;;;14.00;99.90;;;;;;5091513;28;19918;-24
2022/11/10 01:56:47;;;;;;;;;;;14.10;99.90;;;;;;5091755;28;19908;-23
2022/11/10 01:59:14;;;;;;;;;;;14.00;99.90;;;;;;5092070;28;19908;-23
2022/11/10 02:01:40;;;;;;;;;;;14.00;99.90;;;;;;5091711;28;20351;-23
2022/11/10 02:04:13;;;;;;;;;;;14.00;99.90;;;;;;5090977;28;19914;-23
2022/11/10 02:06:40;;;;;;;;;;;14.00;99.90;;;;;;5091533;28;19912;-23
2022/11/10 02:09:06;;;;;;;;;;;14.00;99.90;;;;;;5091846;28;20011;-23
2022/11/10 02:11:32;;;;;;;;;;;14.00;99.90;;;;;;5091273;28;20019;-23
2022/11/10 02:13:58;;;;;;;;;;;14.00;99.90;;;;;;5093799;28;19908;-23
2022/11/10 02:16:24;;;;;;;;;;;14.00;99.90;;;;;;5095424;28;20369;-23
2022/11/10 02:18:49;;;;;;;;;;;14.00;99.90;;;;;;5095349;28;19912;-23
2022/11/10 02:21:15;;;;;;;;;;;14.00;99.90;;;;;;5095104;28;19908;-23
2022/11/10 02:23:45;;;;;;;;;;;14.00;99.90;;;;;;5094740;28;19972;-23
2022/11/10 02:41:26;;;;;;;;;;;13.90;99.90;;;;;;5094837;28;19927;-23
2022/11/10 02:43:52;;;;;;;;;;;13.90;99.90;;;;;;5094553;28;19912;-24
2022/11/10 02:46:17;;;;;;;;;;;13.90;99.90;;;;;;5094797;28;19925;-23
2022/11/10 02:48:45;;;;;;;;;;;13.90;99.90;;;;;;5094686;28;20300;-23
2022/11/10 02:51:10;;;;;;;;;;;13.90;99.90;;;;;;5094837;28;19962;-24
2022/11/10 02:53:36;;;;;;;;;;;13.90;99.90;;;;;;5094395;28;19916;-23
2022/11/10 02:56:01;;;;;;;;;;;13.90;99.90;;;;;;5095397;28;20373;-23
2022/11/10 02:58:27;;;;;;;;;;;13.90;99.90;;;;;;5094729;28;19912;-23
2022/11/10 03:00:52;;;;;;;;;;;13.90;99.90;;;;;;5094610;28;19970;-23
2022/11/10 03:03:18;;;;;;;;;;;13.90;99.90;;;;;;5094192;28;20002;-23
2022/11/10 03:05:43;;;;;;;;;;;13.90;99.90;;;;;;5094628;28;19951;-23
2022/11/10 03:08:09;;;;;;;;;;;13.90;99.90;;;;;;5094621;28;20369;-23
2022/11/10 03:10:34;;;;;;;;;;;13.90;99.90;;;;;;5094520;28;19944;-23
2022/11/10 03:13:00;;;;;;;;;;;13.90;99.90;;;;;;5094135;28;19912;-24
2022/11/10 03:15:26;;;;;;;;;;;13.90;99.90;;;;;;5094416;28;19908;-23
2022/11/10 03:17:52;;;;;;;;;;;13.90;99.90;;;;;;5094152;28;19912;-23
2022/11/10 03:20:17;;;;;;;;;;;13.90;99.90;;;;;;5094371;28;19912;-24
2022/11/10 03:22:43;;;;;;;;;;;13.90;99.90;;;;;;5093640;28;19919;-23
2022/11/10 03:25:09;;;;;;;;;;;13.90;99.90;;;;;;5093624;28;19916;-23
2022/11/10 03:27:34;;;;;;;;;;;13.90;99.90;;;;;;5092646;28;19909;-24
2022/11/10 03:30:00;;;;;;;;;;;13.90;99.90;;;;;;5094169;28;19912;-23
2022/11/10 03:32:25;;;;;;;;;;;13.90;99.90;;;;;;5094525;28;20398;-23
2022/11/10 03:34:51;;;;;;;;;;;13.90;99.90;;;;;;5094308;28;20418;-23
2022/11/10 03:37:16;;;;;;;;;;;13.90;99.90;;;;;;5094678;28;20285;-23
2022/11/10 03:39:42;;;;;;;;;;;13.90;99.90;;;;;;5094160;28;20285;-24
2022/11/10 03:42:08;;;;;;;;;;;13.90;99.90;;;;;;5094674;28;19916;-23
2022/11/10 03:44:33;;;;;;;;;;;13.80;99.90;;;;;;5093854;28;20458;-23
2022/11/10 03:47:01;;;;;;;;;;;13.80;99.90;;;;;;5094802;28;19943;-23
2022/11/10 03:49:27;;;;;;;;;;;13.90;99.90;;;;;;5093794;28;19947;-23
2022/11/10 03:51:52;;;;;;;;;;;13.90;99.90;;;;;;5094695;28;20361;-23
2022/11/10 03:54:18;;;;;;;;;;;13.80;99.90;;;;;;5093534;28;19912;-24
2022/11/10 03:56:43;;;;;;;;;;;13.80;99.90;;;;;;5094478;28;19908;-24
2022/11/10 03:59:09;;;;;;;;;;;13.80;99.90;;;;;;5093395;28;19912;-23
2022/11/10 04:01:35;;;;;;;;;;;13.80;99.90;;;;;;5093537;28;19916;-23
2022/11/10 04:04:00;;;;;;;;;;;13.80;99.90;;;;;;5093104;28;20250;-23
2022/11/10 04:09:10;;;;;;;;;;;13.80;99.90;;;;;;5093972;28;19915;-23
2022/11/10 04:17:04;;;;;;;;;;;13.80;99.90;;;;;;5094102;28;20399;-23
2022/11/10 04:19:29;;;;;;;;;;;13.80;99.90;;;;;;5092419;28;20190;-24
2022/11/10 04:21:55;;;;;;;;;;;13.80;99.90;;;;;;5093791;28;19948;-23
2022/11/10 04:24:21;;;;;;;;;;;13.80;99.90;;;;;;5092649;28;19916;-24
2022/11/10 04:26:47;;;;;;;;;;;13.80;99.90;;;;;;5093573;28;19908;-23
2022/11/10 04:29:13;;;;;;;;;;;13.80;99.90;;;;;;5093419;28;20446;-23
2022/11/10 04:31:39;;;;;;;;;;;13.80;99.90;;;;;;5093200;28;19912;-24
2022/11/10 04:34:06;;;;;;;;;;;13.80;99.90;;;;;;5093152;28;20299;-23
2022/11/10 04:36:32;;;;;;;;;;;13.80;99.90;;;;;;5092086;28;19919;-23
2022/11/10 04:38:58;;;;;;;;;;;13.80;99.90;;;;;;5093148;28;19919;-23
2022/11/10 04:41:24;;;;;;;;;;;13.80;99.90;;;;;;5092606;28;19916;-23
2022/11/10 04:43:50;;;;;;;;;;;13.80;99.90;;;;;;5092420;28;19908;-23
2022/11/10 04:46:15;;;;;;;;;;;13.80;99.90;;;;;;5093272;28;19919;-24
2022/11/10 04:48:40;;;;;;;;;;;13.80;99.90;;;;;;5093484;28;19912;-24
2022/11/10 04:51:06;;;;;;;;;;;13.80;99.90;;;;;;5093045;28;19966;-24
2022/11/10 04:53:32;;;;;;;;;;;13.80;99.90;;;;;;5092455;28;19918;-23
2022/11/10 04:55:57;;;;;;;;;;;13.70;99.90;;;;;;5092961;28;19955;-24
2022/11/10 04:58:23;;;;;;;;;;;13.80;99.90;;;;;;5092790;28;19908;-24
2022/11/10 05:00:48;;;;;;;;;;;13.70;99.90;;;;;;5092411;28;19915;-23
2022/11/10 05:03:14;;;;;;;;;;;13.80;99.90;;;;;;5091992;28;20011;-23
2022/11/10 05:05:40;;;;;;;;;;;13.70;99.90;;;;;;5092780;28;19915;-24
2022/11/10 05:08:06;;;;;;;;;;;13.70;99.90;;;;;;5092595;28;20115;-23
2022/11/10 05:10:32;;;;;;;;;;;13.70;99.90;;;;;;5092312;28;19961;-24
2022/11/10 05:12:57;;;;;;;;;;;13.70;99.90;;;;;;5092356;28;19977;-23
2022/11/10 05:15:23;;;;;;;;;;;13.70;99.90;;;;;;5092200;28;20327;-23
2022/11/10 05:17:50;;;;;;;;;;;13.70;99.90;;;;;;5092420;28;20377;-23
2022/11/10 05:20:16;;;;;;;;;;;13.70;99.90;;;;;;5092618;28;19908;-23
2022/11/10 05:23:36;;;;;;;;;;;13.70;99.90;;;;;;5091802;28;19916;-23
2022/11/10 05:25:34;;;;;;;;;;;13.70;99.90;;;;;;5091955;28;19908;-24
2022/11/10 05:28:00;;;;;;;;;;;13.70;99.90;;;;;;5092123;28;20289;-24
2022/11/10 05:30:26;;;;;;;;;;;13.70;99.90;;;;;;5091984;28;19915;-23
2022/11/10 05:32:51;;;;;;;;;;;13.70;99.90;;;;;;5091832;28;19912;-24
2022/11/10 05:35:17;;;;;;;;;;;13.70;99.90;;;;;;5091943;28;19919;-23
2022/11/10 05:37:43;;;;;;;;;;;13.70;99.90;;;;;;5091467;28;19914;-24
2022/11/10 05:40:08;;;;;;;;;;;13.70;99.90;;;;;;5091895;28;20315;-24
2022/11/10 05:42:41;;;;;;;;;;;13.70;99.90;;;;;;5091990;28;19957;-24
2022/11/10 05:45:06;;;;;;;;;;;13.70;99.90;;;;;;5092600;28;19991;-24
2022/11/10 05:47:34;;;;;;;;;;;13.70;99.90;;;;;;5092911;28;19962;-23
2022/11/10 05:50:00;;;;;;;;;;;13.70;99.90;;;;;;5096807;28;19962;-24
2022/11/10 05:52:26;;;;;;;;;;;13.60;99.90;;;;;;5096177;28;19916;-24
2022/11/10 05:54:54;;;;;;;;;;;13.60;99.90;;;;;;5096824;28;20419;-24
2022/11/10 05:57:20;;;;;;;;;;;13.60;99.90;;;;;;5096282;28;19908;-23
2022/11/10 05:59:45;;;;;;;;;;;13.60;99.90;;;;;;5096500;28;19953;-24
2022/11/10 06:02:11;;;;;;;;;;;13.60;99.90;;;;;;5096572;28;19916;-23
2022/11/10 06:04:37;;;;;;;;;;;13.60;99.90;;;;;;5095719;28;19974;-24
2022/11/10 06:07:03;;;;;;;;;;;13.60;99.90;;;;;;5094603;28;19931;-23
2022/11/10 06:09:28;;;;;;;;;;;13.60;99.90;;;;;;5095948;28;20377;-23
2022/11/10 06:11:54;;;;;;;;;;;13.60;99.90;;;;;;5094769;28;19912;-24
2022/11/10 06:14:19;;;;;;;;;;;13.60;99.90;;;;;;5095700;28;20278;-23
2022/11/10 06:16:45;;;;;;;;;;;13.70;99.90;;;;;;5095635;28;19908;-23
2022/11/10 06:19:10;;;;;;;;;;;13.60;99.90;;;;;;5096165;28;19919;-24
2022/11/10 06:21:36;;;;;;;;;;;13.60;99.90;;;;;;5096728;28;19915;-23
2022/11/10 06:24:01;;;;;;;;;;;13.60;99.90;;;;;;5095588;28;19908;-23
2022/11/10 06:26:27;;;;;;;;;;;13.60;99.90;;;;;;5095528;28;20521;-24
2022/11/10 06:28:52;;;;;;;;;;;13.60;99.90;;;;;;5095748;28;20095;-24
2022/11/10 06:31:18;;;;;;;;;;;13.60;99.90;;;;;;5095853;28;19916;-23
2022/11/10 06:33:43;;;;;;;;;;;13.60;99.90;;;;;;5094985;28;20327;-24
2022/11/10 06:36:09;;;;;;;;;;;13.60;99.90;;;;;;5095525;28;19912;-23
2022/11/10 06:38:34;;;;;;;;;;;13.60;99.90;;;;;;5095479;28;19908;-24
2022/11/10 06:41:00;;;;;;;;;;;13.60;99.90;;;;;;5093748;28;19939;-23
2022/11/10 06:43:25;;;;;;;;;;;13.60;99.90;;;;;;5094438;28;19909;-23
2022/11/10 06:45:51;;;;;;;;;;;13.60;99.90;;;;;;5095085;28;19919;-24
2022/11/10 06:48:16;;;;;;;;;;;13.60;99.90;;;;;;5094665;28;19962;-23
2022/11/10 06:50:42;;;;;;;;;;;13.60;99.90;;;;;;5094853;28;19908;-23
2022/11/10 06:53:08;;;;;;;;;;;13.60;99.90;;;;;;5094704;28;19908;-24
2022/11/10 06:55:33;;;;;;;;;;;13.60;99.90;;;;;;5094878;28;19961;-23
2022/11/10 06:57:59;;;;;;;;;;;13.60;99.90;;;;;;5095012;28;19916;-23
2022/11/10 07:00:26;;;;;;;;;;;13.50;99.90;;;;;;5093586;28;20268;-23
2022/11/10 07:03:01;;;;;;;;;;;13.60;99.90;;;;;;5094388;28;19920;-23
2022/11/10 07:05:27;;;;;;;;;;;13.50;99.90;;;;;;5094802;28;19908;-24
2022/11/10 07:07:53;;;;;;;;;;;13.60;99.90;;;;;;5094859;28;20285;-23
2022/11/10 07:10:18;;;;;;;;;;;13.60;99.90;;;;;;5094553;28;19909;-23
2022/11/10 07:12:44;;;;;;;;;;;13.60;99.90;;;;;;5094115;28;20270;-23
2022/11/10 07:15:09;;;;;;;;;;;13.60;99.90;;;;;;5094301;28;19915;-23
2022/11/10 07:17:41;;;;;;;;;;;13.60;99.90;;;;;;5094583;28;19912;-23
2022/11/10 07:20:07;;;;;;;;;;;13.60;99.90;;;;;;5094259;28;19987;-23
2022/11/10 07:22:32;;;;;;;;;;;13.70;99.90;;;;;;5093897;28;19999;-23
2022/11/10 07:24:58;;;;;;;;;;;13.70;99.90;;;;;;5094470;28;19908;-23
2022/11/10 07:27:23;;;;;;;;;;;13.70;99.90;;;;;;5094445;28;19914;-23
2022/11/10 07:29:49;;;;;;;;;;;13.80;99.90;;;;;;5094103;28;19912;-23
2022/11/10 07:32:14;;;;;;;;;;;13.80;99.90;;;;;;5094503;28;19912;-23
2022/11/10 07:34:40;;;;;;;;;;;13.80;99.90;;;;;;5093820;28;20447;-23
2022/11/10 07:37:06;;;;;;;;;;;13.90;99.90;;;;;;5093919;28;19954;-24
2022/11/10 07:39:32;;;;;;;;;;;13.90;99.90;;;;;;5094052;28;19912;-24
2022/11/10 07:41:57;;;;;;;;;;;13.90;99.90;;;;;;5093857;28;20313;-24
2022/11/10 07:44:23;;;;;;;;;;;13.90;99.90;;;;;;5093365;28;20374;-23
2022/11/10 07:46:48;;;;;;;;;;;14.00;99.90;;;;;;5094535;28;20251;-23
2022/11/10 07:49:14;;;;;;;;;;;14.00;99.90;;;;;;5093833;28;20384;-23
2022/11/10 07:51:41;;;;;;;;;;;14.00;99.90;;;;;;5093729;28;19912;-23
2022/11/10 07:54:06;;;;;;;;;;;14.00;99.90;;;;;;5093279;28;19908;-23
2022/11/10 07:56:32;;;;;;;;;;;14.00;99.90;;;;;;5094191;28;19919;-23
2022/11/10 07:58:57;;;;;;;;;;;14.00;99.90;;;;;;5094582;28;19912;-23
2022/11/10 08:01:23;;;;;;;;;;;14.10;99.90;;;;;;5094008;28;20285;-23
2022/11/10 08:03:48;;;;;;;;;;;14.10;99.90;;;;;;5092874;28;19908;-23
2022/11/10 08:06:14;;;;;;;;;;;14.20;99.90;;;;;;5093436;28;19915;-23
2022/11/10 08:08:39;;;;;;;;;;;14.20;99.90;;;;;;5093737;28;19908;-23
2022/11/10 08:11:05;;;;;;;;;;;14.20;99.90;;;;;;5093295;28;19919;-23
2022/11/10 08:13:30;;;;;;;;;;;14.30;99.90;;;;;;5093095;28;19912;-23
2022/11/10 08:15:58;;;;;;;;;;;14.30;99.90;;;;;;5092070;28;19908;-23
2022/11/10 08:18:23;;;;;;;;;;;14.40;99.90;;;;;;5093346;28;19919;-24
2022/11/10 08:20:49;;;;;;;;;;;14.40;99.90;;;;;;5093233;28;19912;-23
2022/11/10 08:23:15;;;;;;;;;;;14.40;99.90;;;;;;5092846;28;19951;-23
2022/11/10 08:25:40;;;;;;;;;;;14.40;99.90;;;;;;5093684;28;19981;-23
2022/11/10 08:28:08;;;;;;;;;;;14.10;99.90;;;;;;5093149;28;20262;-23
2022/11/10 08:30:35;;;;;;;;;;;14.00;99.90;;;;;;5093492;28;19916;-23
2022/11/10 08:33:01;;;;;;;;;;;14.00;99.90;;;;;;5092691;28;19912;-24
2022/11/10 08:35:28;;;;;;;;;;;14.10;99.90;;;;;;5093008;28;19908;-23
2022/11/10 08:37:54;;;;;;;;;;;14.20;99.90;;;;;;5092884;28;20396;-23
2022/11/10 08:40:20;;;;;;;;;;;14.30;99.90;;;;;;5092983;28;19915;-23
2022/11/10 08:42:46;;;;;;;;;;;14.30;99.90;;;;;;5092368;28;19954;-23
2022/11/10 08:45:12;;;;;;;;;;;14.40;99.90;;;;;;5092681;28;19912;-23
2022/11/10 08:47:37;;;;;;;;;;;14.40;99.90;;;;;;5092746;28;19916;-24
2022/11/10 08:50:03;;;;;;;;;;;14.50;99.90;;;;;;5092655;28;19912;-23
2022/11/10 08:52:29;;;;;;;;;;;14.50;99.90;;;;;;5092085;28;20012;-23
2022/11/10 08:54:54;;;;;;;;;;;14.60;99.90;;;;;;5092720;28;19970;-23
2022/11/10 08:57:20;;;;;;;;;;;14.70;99.90;;;;;;5092473;28;20026;-23
2022/11/10 08:59:45;;;;;;;;;;;14.70;99.90;;;;;;5092505;28;19908;-23
2022/11/10 09:02:11;;;;;;;;;;;14.80;99.90;;;;;;5092593;28;19920;-23
2022/11/10 09:04:37;;;;;;;;;;;14.80;99.90;;;;;;5092081;28;19912;-24
2022/11/10 09:07:02;;;;;;;;;;;14.80;99.90;;;;;;5092305;28;19999;-23
2022/11/10 09:09:28;;;;;;;;;;;14.90;99.90;;;;;;5092268;28;19969;-23
2022/11/10 09:11:53;;;;;;;;;;;14.90;99.90;;;;;;5092269;28;19912;-24
2022/11/10 09:14:19;;;;;;;;;;;14.90;99.90;;;;;;5092421;28;20285;-23
2022/11/10 09:16:44;;;;;;;;;;;15.00;99.90;;;;;;5092279;28;19973;-23
2022/11/10 09:19:10;;;;;;;;;;;15.00;99.90;;;;;;5092078;28;20003;-23
2022/11/10 09:21:35;;;;;;;;;;;15.10;99.90;;;;;;5092528;28;19908;-24
2022/11/10 09:24:01;;;;;;;;;;;15.10;99.90;;;;;;5091302;28;19919;-24
2022/11/10 09:26:26;;;;;;;;;;;15.10;99.90;;;;;;5091828;28;20062;-23
2022/11/10 09:28:52;;;;;;;;;;;15.10;99.90;;;;;;5091939;28;19912;-24
2022/11/10 09:31:17;;;;;;;;;;;15.20;99.90;;;;;;5091828;28;19915;-24
2022/11/10 09:33:43;;;;;;;;;;;15.20;99.90;;;;;;5091430;28;20266;-23
2022/11/10 09:36:08;;;;;;;;;;;15.20;99.90;;;;;;5091871;28;20005;-23
2022/11/10 09:38:34;;;;;;;;;;;15.20;99.90;;;;;;5092032;28;19934;-24
2022/11/10 09:41:03;;;;;;;;;;;15.30;99.90;;;;;;5091529;28;19955;-23
2022/11/10 09:43:35;;;;;;;;;;;15.30;99.90;;;;;;5091208;28;19918;-24
2022/11/10 09:46:04;;;;;;;;;;;15.30;99.90;;;;;;5091625;28;20323;-23
2022/11/10 09:48:31;;;;;;;;;;;15.30;99.90;;;;;;5091580;28;19937;-23
2022/11/10 09:51:00;;;;;;;;;;;15.30;99.90;;;;;;5091613;28;19931;-24
2022/11/10 09:53:38;;;;;;;;;;;15.40;99.90;;;;;;5090948;28;19936;-23
2022/11/10 09:56:04;;;;;;;;;;;15.40;99.90;;;;;;5091624;28;19955;-23
2022/11/10 09:58:37;;;;;;;;;;;15.40;99.90;;;;;;5091662;28;19934;-23
2022/11/10 10:01:06;;;;;;;;;;;15.40;99.90;;;;;;5090083;28;19908;-23
2022/11/10 10:03:33;;;;;;;;;;;15.40;99.90;;;;;;5091200;28;19908;-23
2022/11/10 10:06:03;;;;;;;;;;;15.40;99.90;;;;;;5091443;28;19908;-23
2022/11/10 10:08:52;;;;;;;;;;;15.50;99.90;;;;;;5091436;28;20017;-23
2022/11/10 10:11:17;;;;;;;;;;;15.50;99.90;;;;;;5085509;28;19919;-23
2022/11/10 10:13:43;;;;;;;;;;;15.50;99.90;;;;;;5090985;28;19908;-23
2022/11/10 10:16:30;;;;;;;;;;;15.50;99.90;;;;;;5091338;28;20368;-23
2022/11/10 10:18:59;;;;;;;;;;;15.60;99.90;;;;;;5091495;28;19912;-23
2022/11/10 10:21:30;;;;;;;;;;;15.50;99.90;;;;;;5091228;28;20361;-23
2022/11/10 10:23:58;;;;;;;;;;;15.50;99.90;;;;;;5091007;28;19912;-23
2022/11/10 10:26:26;;;;;;;;;;;15.60;99.90;;;;;;5091507;28;19909;-23
2022/11/10 10:28:52;;;;;;;;;;;15.60;99.90;;;;;;5091032;28;20017;-23
2022/11/10 10:31:26;;;;;;;;;;;15.60;99.90;;;;;;5091149;28;19912;-23
2022/11/10 10:33:52;;;;;;;;;;;15.60;99.90;;;;;;5091625;28;19917;-23
2022/11/10 10:36:20;;;;;;;;;;;15.70;99.90;;;;;;5095062;28;19912;-23
2022/11/10 10:38:48;;;;;;;;;;;15.60;99.90;;;;;;5094993;28;19953;-24
2022/11/10 10:41:30;;;;;;;;;;;15.70;99.90;;;;;;5093327;28;20007;-24
2022/11/10 10:43:58;;;;;;;;;;;15.60;99.90;;;;;;5094526;28;19908;-23
2022/11/10 10:46:28;;;;;;;;;;;15.60;99.90;;;;;;5094949;28;19908;-24
2022/11/10 10:49:13;;;;;;;;;;;15.60;99.90;;;;;;5094832;28;19960;-23
2022/11/10 10:51:39;;;;;;;;;;;15.70;99.90;;;;;;5087226;28;19912;-23
2022/11/10 10:54:21;;;;;;;;;;;15.70;99.90;;;;;;5094412;28;19912;-23
2022/11/10 10:56:46;;;;;;;;;;;15.70;99.90;;;;;;5094623;28;19908;-23
2022/11/10 10:59:17;;;;;;;;;;;15.70;99.90;;;;;;5094752;28;19969;-24
2022/11/10 11:01:43;;;;;;;;;;;15.70;99.90;;;;;;5094908;28;19951;-24
2022/11/10 11:04:31;;;;;;;;;;;15.70;99.90;;;;;;5094079;28;19943;-23
2022/11/10 11:07:01;;;;;;;;;;;15.70;99.90;;;;;;5088599;28;19908;-23
2022/11/10 11:09:42;;;;;;;;;;;15.70;99.90;;;;;;5094324;28;19925;-23
2022/11/10 11:12:12;;;;;;;;;;;15.70;99.90;;;;;;5094347;28;19912;-23
2022/11/10 11:14:38;;;;;;;;;;;15.70;99.90;;;;;;5094032;28;19912;-23
2022/11/10 11:17:23;;;;;;;;;;;15.70;99.90;;;;;;5094220;28;19919;-23
2022/11/10 11:19:53;;;;;;;;;;;15.70;99.90;;;;;;5093860;28;19912;-24
2022/11/10 11:22:27;;;;;;;;;;;15.70;99.90;;;;;;5094170;28;19912;-23
2022/11/10 11:24:59;;;;;;;;;;;15.70;99.90;;;;;;5094220;28;20309;-23
2022/11/10 11:27:30;;;;;;;;;;;15.70;99.90;;;;;;5093871;28;19955;-23
2022/11/10 11:29:58;;;;;;;;;;;15.70;99.90;;;;;;5094048;28;19995;-23
2022/11/10 11:32:32;;;;;;;;;;;15.70;99.90;;;;;;5093626;28;19919;-23
2022/11/10 11:35:15;;;;;;;;;;;15.70;99.90;;;;;;5093878;28;19908;-23
2022/11/10 11:37:56;;;;;;;;;;;15.70;99.90;;;;;;5093872;28;19908;-23
2022/11/10 11:40:41;;;;;;;;;;;15.70;99.90;;;;;;5093717;28;19912;-24
2022/11/10 11:43:16;;;;;;;;;;;15.80;99.90;;;;;;5092968;28;19915;-24
2022/11/10 11:45:42;;;;;;;;;;;15.70;99.90;;;;;;5093099;28;20004;-23
2022/11/10 11:48:18;;;;;;;;;;;15.70;99.90;;;;;;5093501;28;19914;-23
2022/11/10 11:50:52;;;;;;;;;;;15.70;99.90;;;;;;5093521;28;19916;-23
2022/11/10 11:53:36;;;;;;;;;;;15.70;99.90;;;;;;5093513;28;19912;-25
2022/11/10 11:56:02;;;;;;;;;;;15.70;99.90;;;;;;5093505;28;19934;-23
2022/11/10 11:58:30;;;;;;;;;;;15.70;99.90;;;;;;5093400;28;19921;-23
2022/11/10 12:01:06;;;;;;;;;;;15.70;99.90;;;;;;5093341;28;19929;-24
2022/11/10 12:03:41;;;;;;;;;;;15.70;99.90;;;;;;5092913;28;19916;-24
2022/11/10 12:06:14;;;;;;;;;;;15.60;99.90;;;;;;5093673;28;19958;-23
2022/11/10 12:08:56;;;;;;;;;;;15.60;99.90;;;;;;5093170;28;19995;-24
2022/11/10 12:11:43;;;;;;;;;;;15.70;99.90;;;;;;5093241;28;19919;-23
2022/11/10 12:14:34;;;;;;;;;;;15.60;99.90;;;;;;5092672;28;19998;-23
2022/11/10 12:17:09;;;;;;;;;;;15.70;99.90;;;;;;5076691;28;19987;-23
2022/11/10 12:19:52;;;;;;;;;;;15.70;99.90;;;;;;5092900;28;19921;-23
2022/11/10 12:22:36;;;;;;;;;;;15.70;99.90;;;;;;5093045;28;19912;-23
2022/11/10 12:25:07;;;;;;;;;;;15.70;99.90;;;;;;5092956;28;19939;-23
2022/11/10 12:27:38;;;;;;;;;;;15.60;99.90;;;;;;5092699;28;20017;-23
2022/11/10 12:30:09;;;;;;;;;;;15.70;99.90;;;;;;5092819;28;20036;-24
2022/11/10 12:32:47;;;;;;;;;;;15.70;99.90;;;;;;5092207;28;19912;-23
2022/11/10 12:35:21;;;;;;;;;;;15.60;99.90;;;;;;5092709;28;19929;-23
2022/11/10 12:37:52;;;;;;;;;;;15.70;99.90;;;;;;5092688;28;19909;-23
2022/11/10 12:40:20;;;;;;;;;;;15.70;99.90;;;;;;5092803;28;19916;-23
2022/11/10 12:42:57;;;;;;;;;;;15.60;99.90;;;;;;5092246;28;20308;-23
2022/11/10 12:45:25;;;;;;;;;;;15.60;99.90;;;;;;5092412;28;19908;-23
2022/11/10 12:47:52;;;;;;;;;;;15.70;99.90;;;;;;5092427;28;20340;-24
2022/11/10 12:50:32;;;;;;;;;;;15.70;99.90;;;;;;5092322;28;19943;-24
2022/11/10 12:53:00;;;;;;;;;;;15.70;99.90;;;;;;5091822;28;19919;-23
2022/11/10 12:55:37;;;;;;;;;;;15.70;99.90;;;;;;5092253;28;20361;-23
2022/11/10 12:58:04;;;;;;;;;;;15.70;99.90;;;;;;5090129;28;19912;-23
2022/11/10 13:00:31;;;;;;;;;;;15.70;99.90;;;;;;5092061;28;19912;-24
2022/11/10 13:02:57;;;;;;;;;;;15.70;99.90;;;;;;5091564;28;19908;-23
2022/11/10 13:05:25;;;;;;;;;;;15.70;99.90;;;;;;5092059;28;20268;-24
2022/11/10 13:08:03;;;;;;;;;;;15.70;99.90;;;;;;5092082;28;20389;-23
2022/11/10 13:10:29;;;;;;;;;;;15.70;99.90;;;;;;5092014;28;19914;-24
2022/11/10 13:13:04;;;;;;;;;;;15.70;99.90;;;;;;5091721;28;20023;-24
2022/11/10 13:15:38;;;;;;;;;;;15.60;99.90;;;;;;5092076;28;19967;-23
2022/11/10 13:18:10;;;;;;;;;;;15.70;99.90;;;;;;5091796;28;20380;-24
2022/11/10 13:20:49;;;;;;;;;;;15.70;99.90;;;;;;5091797;28;20446;-23
2022/11/10 13:23:25;;;;;;;;;;;15.70;99.90;;;;;;5091510;28;19908;-24
2022/11/10 13:26:00;;;;;;;;;;;15.70;99.90;;;;;;5091855;28;19912;-23
2022/11/10 13:28:45;;;;;;;;;;;15.70;99.90;;;;;;5091899;28;20019;-23
2022/11/10 13:31:25;;;;;;;;;;;15.60;99.90;;;;;;5091765;28;20002;-23
2022/11/10 13:34:03;;;;;;;;;;;15.70;99.90;;;;;;5091221;28;19946;-24
2022/11/10 13:36:35;;;;;;;;;;;15.70;99.90;;;;;;5092336;28;19912;-23
2022/11/10 13:39:14;;;;;;;;;;;15.60;99.90;;;;;;5091680;28;19908;-23
2022/11/10 13:41:47;;;;;;;;;;;15.70;99.90;;;;;;5090262;28;20028;-24
2022/11/10 13:44:19;;;;;;;;;;;15.60;99.90;;;;;;5091136;28;19950;-24
2022/11/10 13:47:05;;;;;;;;;;;15.70;99.90;;;;;;5091424;28;19961;-23
2022/11/10 13:49:33;;;;;;;;;;;15.70;99.90;;;;;;5069832;28;19915;-23
2022/11/10 13:52:07;;;;;;;;;;;15.70;99.90;;;;;;5091301;28;19912;-24
2022/11/10 13:54:40;;;;;;;;;;;15.60;99.90;;;;;;5091046;28;20389;-23
2022/11/10 13:57:08;;;;;;;;;;;15.70;99.90;;;;;;5091506;28;20344;-24
2022/11/10 13:59:43;;;;;;;;;;;15.60;99.90;;;;;;5091837;28;19916;-24
2022/11/10 14:02:27;;;;;;;;;;;15.60;99.90;;;;;;5091579;28;19991;-24
2022/11/10 14:04:52;;;;;;;;;;;15.70;99.90;;;;;;5091402;28;19919;-24
2022/11/10 14:07:19;;;;;;;;;;;15.60;99.90;;;;;;5091400;28;19916;-24
2022/11/10 14:09:47;;;;;;;;;;;15.70;99.90;;;;;;5093801;28;19958;-24
2022/11/10 14:12:22;;;;;;;;;;;15.60;99.90;;;;;;5095252;28;19912;-24
2022/11/10 14:14:47;;;;;;;;;;;15.60;99.90;;;;;;5095613;28;19908;-24
2022/11/10 14:17:22;;;;;;;;;;;15.70;99.90;;;;;;5095399;28;20330;-24
2022/11/10 14:19:48;;;;;;;;;;;15.70;99.90;;;;;;5095349;28;19908;-24
2022/11/10 14:22:13;;;;;;;;;;;15.60;99.90;;;;;;5095205;28;20277;-23
2022/11/10 14:24:54;;;;;;;;;;;15.60;99.90;;;;;;5094792;28;19912;-24
2022/11/10 14:27:21;;;;;;;;;;;15.50;99.90;;;;;;5095241;28;19919;-23
2022/11/10 14:29:46;;;;;;;;;;;15.40;99.90;;;;;;5095244;28;20285;-24
2022/11/10 14:32:17;;;;;;;;;;;15.40;99.90;;;;;;5094942;28;20019;-24
2022/11/10 14:34:46;;;;;;;;;;;15.40;99.90;;;;;;5094754;28;19909;-24
2022/11/10 14:37:23;;;;;;;;;;;15.30;99.90;;;;;;5094930;28;19919;-24
2022/11/10 14:39:52;;;;;;;;;;;15.30;99.90;;;;;;5095093;28;19914;-24
2022/11/10 14:42:20;;;;;;;;;;;15.30;99.90;;;;;;5094724;28;19920;-24
2022/11/10 14:44:47;;;;;;;;;;;15.30;99.90;;;;;;5094509;28;19939;-24
2022/11/10 14:47:22;;;;;;;;;;;15.30;99.90;;;;;;5094563;28;19908;-23
2022/11/10 14:50:01;;;;;;;;;;;15.30;99.90;;;;;;5094729;28;19915;-24
2022/11/10 14:52:27;;;;;;;;;;;15.20;99.90;;;;;;5094282;28;20316;-23
2022/11/10 14:54:52;;;;;;;;;;;15.30;99.90;;;;;;5094632;28;19996;-23
2022/11/10 14:57:18;;;;;;;;;;;15.30;99.90;;;;;;5094445;28;19951;-24
2022/11/10 14:59:44;;;;;;;;;;;15.30;99.90;;;;;;5094412;28;19908;-24
2022/11/10 15:02:12;;;;;;;;;;;15.30;99.90;;;;;;5094707;28;19962;-23
2022/11/10 15:04:39;;;;;;;;;;;15.30;99.90;;;;;;5093933;28;19916;-24
2022/11/10 15:07:05;;;;;;;;;;;15.20;99.90;;;;;;5094529;28;20379;-24
2022/11/10 15:09:31;;;;;;;;;;;15.20;99.90;;;;;;5094525;28;19908;-24
2022/11/10 15:11:59;;;;;;;;;;;15.30;99.90;;;;;;5094388;28;19977;-23
2022/11/10 15:14:31;;;;;;;;;;;15.20;99.90;;;;;;5092502;28;19908;-24
2022/11/10 15:17:00;;;;;;;;;;;15.20;99.90;;;;;;5094285;28;19919;-24
2022/11/10 15:19:27;;;;;;;;;;;15.20;99.90;;;;;;5094179;28;19940;-24
2022/11/10 15:21:53;;;;;;;;;;;15.20;99.90;;;;;;5093159;28;19943;-24
2022/11/10 15:24:19;;;;;;;;;;;15.20;99.90;;;;;;5093755;28;20265;-24
2022/11/10 15:26:44;;;;;;;;;;;15.20;99.90;;;;;;5093883;28;20007;-24
2022/11/10 15:29:21;;;;;;;;;;;15.20;99.90;;;;;;5094419;28;19965;-23
2022/11/10 15:31:46;;;;;;;;;;;15.10;99.90;;;;;;5093873;28;20034;-24
2022/11/10 15:34:28;;;;;;;;;;;15.10;99.90;;;;;;5093511;28;20418;-24
2022/11/10 15:37:11;;;;;;;;;;;15.10;99.90;;;;;;5093840;28;20278;-24
2022/11/10 15:39:37;;;;;;;;;;;15.10;99.90;;;;;;5092535;28;19908;-24
2022/11/10 15:42:11;;;;;;;;;;;15.10;99.90;;;;;;5093740;28;19919;-24
2022/11/10 15:44:37;;;;;;;;;;;15.10;99.90;;;;;;5092068;28;19988;-24
2022/11/10 15:47:02;;;;;;;;;;;15.00;99.90;;;;;;5093861;28;19947;-24
2022/11/10 15:49:35;;;;;;;;;;;15.00;99.90;;;;;;5093586;28;19912;-24
2022/11/10 15:52:05;;;;;;;;;;;15.00;99.90;;;;;;5093317;28;19973;-24
2022/11/10 15:54:32;;;;;;;;;;;15.00;99.90;;;;;;5093334;28;20041;-24
2022/11/10 15:56:58;;;;;;;;;;;15.00;99.90;;;;;;5093766;28;19912;-24
2022/11/10 15:59:23;;;;;;;;;;;15.00;99.90;;;;;;5093552;28;19918;-24
2022/11/10 16:01:49;;;;;;;;;;;15.00;99.90;;;;;;5093580;28;20281;-24
2022/11/10 16:04:15;;;;;;;;;;;15.10;99.90;;;;;;5092912;28;19916;-24
2022/11/10 16:06:41;;;;;;;;;;;15.10;99.90;;;;;;5094048;28;19912;-24
2022/11/10 16:09:06;;;;;;;;;;;15.10;99.90;;;;;;5093272;28;19908;-23
2022/11/10 16:11:34;;;;;;;;;;;15.10;99.90;;;;;;5093741;28;19920;-24
2022/11/10 16:14:00;;;;;;;;;;;15.10;99.90;;;;;;5092988;28;19912;-24
2022/11/10 16:16:27;;;;;;;;;;;15.00;99.90;;;;;;5093765;28;19956;-24
2022/11/10 16:18:53;;;;;;;;;;;15.00;99.90;;;;;;5093367;28;19974;-24
2022/11/10 16:21:20;;;;;;;;;;;15.00;99.90;;;;;;5093225;28;19939;-24